sensor_id;sensor_type;location;lat;lon;timestamp;pressure;altitude;pressure_sealevel;temperature;humidity
77227;BME280;66234;47.642;19.144;2024-01-06T00:00:23;99457.84;;;2.96;100.00
77227;BME280;66234;47.642;19.144;2024-01-06T00:03:26;99458.81;;;3.03;100.00
77227;BME280;66234;47.642;19.144;2024-01-06T00:06:28;99451.63;;;3.11;100.00
77227;BME280;66234;47.642;19.144;2024-01-06T00:09:31;99450.72;;;3.19;100.00
77227;BME280;66234;47.642;19.144;2024-01-06T00:12:34;99444.16;;;3.29;100.00
77227;BME280;66234;47.642;19.144;2024-01-06T00:15:37;99435.06;;;3.47;100.00
77227;BME280;66234;47.642;19.144;2024-01-06T00:18:40;99428.25;;;3.67;100.00
77227;BME280;66234;47.642;19.144;2024-01-06T00:21:42;99413.22;;;3.67;100.00
77227;BME280;66234;47.642;19.144;2024-01-06T00:24:45;99418.13;;;3.70;100.00
77227;BME280;66234;47.642;19.144;2024-01-06T00:27:48;99419.56;;;3.87;100.00
77227;BME280;66234;47.642;19.144;2024-01-06T00:30:51;99417.19;;;4.07;100.00
77227;BME280;66234;47.642;19.144;2024-01-06T00:33:53;99408.50;;;4.13;100.00
77227;BME280;66234;47.642;19.144;2024-01-06T00:36:56;99416.47;;;4.34;100.00
77227;BME280;66234;47.642;19.144;2024-01-06T00:39:59;99416.22;;;4.50;100.00
77227;BME280;66234;47.642;19.144;2024-01-06T00:43:02;99418.63;;;4.66;100.00
77227;BME280;66234;47.642;19.144;2024-01-06T00:46:05;99406.66;;;4.70;100.00
77227;BME280;66234;47.642;19.144;2024-01-06T00:49:07;99410.16;;;4.77;100.00
77227;BME280;66234;47.642;19.144;2024-01-06T00:52:10;99411.44;;;4.81;100.00
77227;BME280;66234;47.642;19.144;2024-01-06T00:55:13;99408.34;;;4.77;100.00
77227;BME280;66234;47.642;19.144;2024-01-06T00:58:15;99408.28;;;4.71;100.00
77227;BME280;66234;47.642;19.144;2024-01-06T01:01:18;99404.31;;;4.60;100.00
77227;BME280;66234;47.642;19.144;2024-01-06T01:04:21;99405.19;;;4.46;100.00
77227;BME280;66234;47.642;19.144;2024-01-06T01:07:24;99406.91;;;4.33;100.00
77227;BME280;66234;47.642;19.144;2024-01-06T01:10:27;99401.00;;;4.16;100.00
77227;BME280;66234;47.642;19.144;2024-01-06T01:13:29;99399.19;;;4.02;100.00
77227;BME280;66234;47.642;19.144;2024-01-06T01:16:32;99404.72;;;3.86;100.00
77227;BME280;66234;47.642;19.144;2024-01-06T01:19:35;99395.06;;;3.79;100.00
77227;BME280;66234;47.642;19.144;2024-01-06T01:22:38;99390.44;;;3.66;100.00
77227;BME280;66234;47.642;19.144;2024-01-06T01:25:41;99394.03;;;3.94;100.00
77227;BME280;66234;47.642;19.144;2024-01-06T01:28:44;99391.50;;;4.22;100.00
77227;BME280;66234;47.642;19.144;2024-01-06T01:31:47;99382.81;;;4.28;100.00
77227;BME280;66234;47.642;19.144;2024-01-06T01:34:50;99389.31;;;4.46;100.00
77227;BME280;66234;47.642;19.144;2024-01-06T01:37:53;99381.84;;;4.56;100.00
77227;BME280;66234;47.642;19.144;2024-01-06T01:40:56;99382.19;;;4.68;100.00
77227;BME280;66234;47.642;19.144;2024-01-06T01:43:59;99391.16;;;4.67;100.00
77227;BME280;66234;47.642;19.144;2024-01-06T01:47:04;99379.16;;;4.71;100.00
77227;BME280;66234;47.642;19.144;2024-01-06T01:50:08;99380.53;;;4.88;100.00
77227;BME280;66234;47.642;19.144;2024-01-06T01:53:12;99369.22;;;5.00;100.00
77227;BME280;66234;47.642;19.144;2024-01-06T01:56:16;99374.94;;;5.04;100.00
77227;BME280;66234;47.642;19.144;2024-01-06T01:59:19;99374.63;;;5.14;100.00
77227;BME280;66234;47.642;19.144;2024-01-06T02:02:22;99370.56;;;5.18;100.00
77227;BME280;66234;47.642;19.144;2024-01-06T02:05:25;99377.34;;;5.27;100.00
77227;BME280;66234;47.642;19.144;2024-01-06T02:08:28;99365.31;;;5.31;100.00
77227;BME280;66234;47.642;19.144;2024-01-06T02:11:30;99359.03;;;5.32;100.00
77227;BME280;66234;47.642;19.144;2024-01-06T02:14:33;99351.28;;;5.30;100.00
77227;BME280;66234;47.642;19.144;2024-01-06T02:17:36;99357.88;;;5.13;100.00
77227;BME280;66234;47.642;19.144;2024-01-06T02:20:40;99361.69;;;5.32;100.00
77227;BME280;66234;47.642;19.144;2024-01-06T02:23:45;99354.75;;;5.37;100.00
77227;BME280;66234;47.642;19.144;2024-01-06T02:26:48;99348.63;;;5.30;100.00
77227;BME280;66234;47.642;19.144;2024-01-06T02:29:51;99358.00;;;5.33;100.00
77227;BME280;66234;47.642;19.144;2024-01-06T02:32:53;99355.97;;;5.35;100.00
77227;BME280;66234;47.642;19.144;2024-01-06T02:35:56;99360.94;;;5.44;100.00
77227;BME280;66234;47.642;19.144;2024-01-06T02:38:59;99353.44;;;5.54;100.00
77227;BME280;66234;47.642;19.144;2024-01-06T02:42:02;99350.91;;;5.40;100.00
77227;BME280;66234;47.642;19.144;2024-01-06T02:45:06;99343.56;;;5.35;100.00
77227;BME280;66234;47.642;19.144;2024-01-06T02:48:09;99334.81;;;5.41;100.00
77227;BME280;66234;47.642;19.144;2024-01-06T02:51:12;99325.94;;;5.28;100.00
77227;BME280;66234;47.642;19.144;2024-01-06T02:54:15;99326.19;;;5.33;100.00
77227;BME280;66234;47.642;19.144;2024-01-06T02:57:18;99319.84;;;5.27;100.00
77227;BME280;66234;47.642;19.144;2024-01-06T03:00:21;99329.53;;;5.48;100.00
77227;BME280;66234;47.642;19.144;2024-01-06T03:03:24;99328.97;;;5.52;100.00
77227;BME280;66234;47.642;19.144;2024-01-06T03:06:27;99328.97;;;5.59;100.00
77227;BME280;66234;47.642;19.144;2024-01-06T03:09:30;99324.72;;;5.64;100.00
77227;BME280;66234;47.642;19.144;2024-01-06T03:12:32;99301.44;;;5.53;100.00
77227;BME280;66234;47.642;19.144;2024-01-06T03:15:35;99309.53;;;5.45;100.00
77227;BME280;66234;47.642;19.144;2024-01-06T03:18:38;99300.75;;;5.45;100.00
77227;BME280;66234;47.642;19.144;2024-01-06T03:21:40;99303.84;;;5.48;100.00
77227;BME280;66234;47.642;19.144;2024-01-06T03:24:43;99302.63;;;5.44;100.00
77227;BME280;66234;47.642;19.144;2024-01-06T03:27:46;99297.13;;;5.46;100.00
77227;BME280;66234;47.642;19.144;2024-01-06T03:30:49;99304.69;;;5.55;100.00
77227;BME280;66234;47.642;19.144;2024-01-06T03:33:51;99304.69;;;5.55;100.00
77227;BME280;66234;47.642;19.144;2024-01-06T03:36:57;99304.09;;;5.60;100.00
77227;BME280;66234;47.642;19.144;2024-01-06T03:39:59;99305.31;;;5.57;100.00
77227;BME280;66234;47.642;19.144;2024-01-06T03:43:02;99295.53;;;5.58;100.00
77227;BME280;66234;47.642;19.144;2024-01-06T03:46:05;99299.59;;;5.60;100.00
77227;BME280;66234;47.642;19.144;2024-01-06T03:49:08;99306.28;;;5.50;100.00
77227;BME280;66234;47.642;19.144;2024-01-06T03:52:11;99303.47;;;5.58;100.00
77227;BME280;66234;47.642;19.144;2024-01-06T03:55:14;99302.66;;;5.57;100.00
77227;BME280;66234;47.642;19.144;2024-01-06T03:58:17;99303.25;;;5.53;100.00
77227;BME280;66234;47.642;19.144;2024-01-06T04:01:20;99305.09;;;5.52;100.00
77227;BME280;66234;47.642;19.144;2024-01-06T04:04:24;99304.41;;;5.37;100.00
77227;BME280;66234;47.642;19.144;2024-01-06T04:07:26;99304.25;;;5.45;100.00
77227;BME280;66234;47.642;19.144;2024-01-06T04:10:29;99303.00;;;5.48;100.00
77227;BME280;66234;47.642;19.144;2024-01-06T04:13:31;99307.41;;;5.28;100.00
77227;BME280;66234;47.642;19.144;2024-01-06T04:16:34;99317.25;;;5.34;100.00
77227;BME280;66234;47.642;19.144;2024-01-06T04:19:37;99324.53;;;5.25;100.00
77227;BME280;66234;47.642;19.144;2024-01-06T04:22:39;99337.53;;;5.20;100.00
77227;BME280;66234;47.642;19.144;2024-01-06T04:25:42;99329.00;;;5.25;100.00
77227;BME280;66234;47.642;19.144;2024-01-06T04:28:45;99340.81;;;5.22;100.00
77227;BME280;66234;47.642;19.144;2024-01-06T04:31:48;99322.56;;;5.34;100.00
77227;BME280;66234;47.642;19.144;2024-01-06T04:34:50;99325.16;;;5.27;100.00
77227;BME280;66234;47.642;19.144;2024-01-06T04:37:53;99316.06;;;5.43;100.00
77227;BME280;66234;47.642;19.144;2024-01-06T04:40:56;99306.94;;;5.52;100.00
77227;BME280;66234;47.642;19.144;2024-01-06T04:43:59;99322.19;;;5.50;100.00
77227;BME280;66234;47.642;19.144;2024-01-06T04:47:02;99319.91;;;5.40;100.00
77227;BME280;66234;47.642;19.144;2024-01-06T04:50:05;99333.75;;;5.36;100.00
77227;BME280;66234;47.642;19.144;2024-01-06T04:53:08;99336.34;;;5.29;100.00
77227;BME280;66234;47.642;19.144;2024-01-06T04:56:10;99335.94;;;5.26;100.00
77227;BME280;66234;47.642;19.144;2024-01-06T04:59:13;99335.50;;;5.22;100.00
77227;BME280;66234;47.642;19.144;2024-01-06T05:02:16;99325.75;;;5.23;100.00
77227;BME280;66234;47.642;19.144;2024-01-06T05:05:19;99327.50;;;5.50;100.00
77227;BME280;66234;47.642;19.144;2024-01-06T05:08:22;99314.22;;;5.43;100.00
77227;BME280;66234;47.642;19.144;2024-01-06T05:11:25;99312.16;;;5.32;100.00
77227;BME280;66234;47.642;19.144;2024-01-06T05:14:28;99308.72;;;5.45;100.00
77227;BME280;66234;47.642;19.144;2024-01-06T05:17:30;99314.59;;;5.40;100.00
77227;BME280;66234;47.642;19.144;2024-01-06T05:20:33;99319.13;;;5.46;100.00
77227;BME280;66234;47.642;19.144;2024-01-06T05:23:36;99316.06;;;5.49;100.00
77227;BME280;66234;47.642;19.144;2024-01-06T05:26:38;99316.09;;;5.56;100.00
77227;BME280;66234;47.642;19.144;2024-01-06T05:29:41;99302.28;;;5.67;100.00
77227;BME280;66234;47.642;19.144;2024-01-06T05:32:44;99294.94;;;5.62;100.00
77227;BME280;66234;47.642;19.144;2024-01-06T05:35:46;99297.16;;;5.59;100.00
77227;BME280;66234;47.642;19.144;2024-01-06T05:38:49;99298.75;;;5.47;100.00
77227;BME280;66234;47.642;19.144;2024-01-06T05:41:54;99304.25;;;5.45;100.00
77227;BME280;66234;47.642;19.144;2024-01-06T05:44:57;99305.66;;;5.41;100.00
77227;BME280;66234;47.642;19.144;2024-01-06T05:47:59;99305.91;;;5.53;100.00
77227;BME280;66234;47.642;19.144;2024-01-06T05:51:05;99314.50;;;5.61;100.00
77227;BME280;66234;47.642;19.144;2024-01-06T05:54:08;99324.53;;;5.66;100.00
77227;BME280;66234;47.642;19.144;2024-01-06T05:57:11;99313.91;;;5.66;100.00
77227;BME280;66234;47.642;19.144;2024-01-06T06:00:15;99322.44;;;5.55;100.00
77227;BME280;66234;47.642;19.144;2024-01-06T06:03:17;99331.63;;;5.59;100.00
77227;BME280;66234;47.642;19.144;2024-01-06T06:06:20;99341.03;;;5.61;100.00
77227;BME280;66234;47.642;19.144;2024-01-06T06:09:23;99345.78;;;5.72;100.00
77227;BME280;66234;47.642;19.144;2024-01-06T06:12:26;99352.78;;;5.86;100.00
77227;BME280;66234;47.642;19.144;2024-01-06T06:15:28;99345.25;;;5.90;100.00
77227;BME280;66234;47.642;19.144;2024-01-06T06:18:31;99351.41;;;5.97;100.00
77227;BME280;66234;47.642;19.144;2024-01-06T06:21:35;99339.56;;;5.99;100.00
77227;BME280;66234;47.642;19.144;2024-01-06T06:24:38;99339.97;;;5.96;100.00
77227;BME280;66234;47.642;19.144;2024-01-06T06:27:40;99333.41;;;5.86;100.00
77227;BME280;66234;47.642;19.144;2024-01-06T06:30:43;99349.19;;;5.66;100.00
77227;BME280;66234;47.642;19.144;2024-01-06T06:33:46;99333.53;;;5.78;100.00
77227;BME280;66234;47.642;19.144;2024-01-06T06:36:49;99343.75;;;5.81;100.00
77227;BME280;66234;47.642;19.144;2024-01-06T06:39:51;99345.38;;;5.75;100.00
77227;BME280;66234;47.642;19.144;2024-01-06T06:42:54;99348.63;;;5.71;100.00
77227;BME280;66234;47.642;19.144;2024-01-06T06:45:57;99346.72;;;5.58;100.00
77227;BME280;66234;47.642;19.144;2024-01-06T06:48:59;99341.38;;;5.52;100.00
77227;BME280;66234;47.642;19.144;2024-01-06T06:52:02;99344.50;;;5.68;100.00
77227;BME280;66234;47.642;19.144;2024-01-06T06:55:06;99341.44;;;5.65;100.00
77227;BME280;66234;47.642;19.144;2024-01-06T06:58:09;99336.91;;;5.59;100.00
77227;BME280;66234;47.642;19.144;2024-01-06T07:01:14;99349.97;;;5.60;100.00
77227;BME280;66234;47.642;19.144;2024-01-06T07:04:17;99345.94;;;5.64;100.00
77227;BME280;66234;47.642;19.144;2024-01-06T07:07:20;99334.56;;;5.77;100.00
77227;BME280;66234;47.642;19.144;2024-01-06T07:10:22;99321.16;;;5.91;100.00
77227;BME280;66234;47.642;19.144;2024-01-06T07:13:25;99324.22;;;5.88;100.00
77227;BME280;66234;47.642;19.144;2024-01-06T07:16:29;99324.84;;;5.90;100.00
77227;BME280;66234;47.642;19.144;2024-01-06T07:19:32;99324.44;;;5.93;100.00
77227;BME280;66234;47.642;19.144;2024-01-06T07:22:36;99332.19;;;5.95;100.00
77227;BME280;66234;47.642;19.144;2024-01-06T07:25:38;99328.75;;;6.01;100.00
77227;BME280;66234;47.642;19.144;2024-01-06T07:28:42;99343.44;;;5.97;100.00
77227;BME280;66234;47.642;19.144;2024-01-06T07:31:45;99332.44;;;6.06;100.00
77227;BME280;66234;47.642;19.144;2024-01-06T07:34:48;99335.31;;;6.11;100.00
77227;BME280;66234;47.642;19.144;2024-01-06T07:37:50;99334.91;;;6.14;100.00
77227;BME280;66234;47.642;19.144;2024-01-06T07:40:53;99331.81;;;5.98;100.00
77227;BME280;66234;47.642;19.144;2024-01-06T07:43:57;99327.16;;;6.06;100.00
77227;BME280;66234;47.642;19.144;2024-01-06T07:46:59;99321.00;;;6.06;100.00
77227;BME280;66234;47.642;19.144;2024-01-06T07:50:04;99322.66;;;6.13;100.00
77227;BME280;66234;47.642;19.144;2024-01-06T07:53:07;99316.13;;;6.09;100.00
77227;BME280;66234;47.642;19.144;2024-01-06T07:56:10;99331.03;;;6.10;100.00
77227;BME280;66234;47.642;19.144;2024-01-06T07:59:13;99325.72;;;6.10;100.00
77227;BME280;66234;47.642;19.144;2024-01-06T08:02:16;99329.19;;;6.11;100.00
77227;BME280;66234;47.642;19.144;2024-01-06T08:05:19;99334.50;;;6.17;100.00
77227;BME280;66234;47.642;19.144;2024-01-06T08:08:22;99335.53;;;6.16;100.00
77227;BME280;66234;47.642;19.144;2024-01-06T08:11:24;99327.81;;;6.28;100.00
77227;BME280;66234;47.642;19.144;2024-01-06T08:14:27;99326.97;;;6.21;100.00
77227;BME280;66234;47.642;19.144;2024-01-06T08:17:29;99325.94;;;6.22;100.00
77227;BME280;66234;47.642;19.144;2024-01-06T08:20:32;99332.09;;;6.29;100.00
77227;BME280;66234;47.642;19.144;2024-01-06T08:23:35;99330.06;;;6.31;100.00
77227;BME280;66234;47.642;19.144;2024-01-06T08:26:37;99326.75;;;6.22;100.00
77227;BME280;66234;47.642;19.144;2024-01-06T08:29:40;99334.72;;;6.22;100.00
77227;BME280;66234;47.642;19.144;2024-01-06T08:32:43;99341.06;;;6.21;100.00
77227;BME280;66234;47.642;19.144;2024-01-06T08:35:46;99347.38;;;6.27;100.00
77227;BME280;66234;47.642;19.144;2024-01-06T08:38:49;99353.94;;;6.31;100.00
77227;BME280;66234;47.642;19.144;2024-01-06T08:41:51;99351.03;;;6.19;100.00
77227;BME280;66234;47.642;19.144;2024-01-06T08:44:54;99347.56;;;6.12;100.00
77227;BME280;66234;47.642;19.144;2024-01-06T08:47:57;99342.66;;;6.16;100.00
77227;BME280;66234;47.642;19.144;2024-01-06T08:50:59;99348.81;;;6.23;100.00
77227;BME280;66234;47.642;19.144;2024-01-06T08:54:02;99352.91;;;6.25;100.00
77227;BME280;66234;47.642;19.144;2024-01-06T08:57:07;99337.59;;;6.34;100.00
77227;BME280;66234;47.642;19.144;2024-01-06T09:00:10;99343.94;;;6.39;100.00
77227;BME280;66234;47.642;19.144;2024-01-06T09:03:14;99341.88;;;6.35;100.00
77227;BME280;66234;47.642;19.144;2024-01-06T09:06:16;99338.41;;;6.34;100.00
77227;BME280;66234;47.642;19.144;2024-01-06T09:09:19;99343.31;;;6.24;100.00
77227;BME280;66234;47.642;19.144;2024-01-06T09:12:21;99345.38;;;6.35;100.00
77227;BME280;66234;47.642;19.144;2024-01-06T09:15:24;99334.94;;;6.40;100.00
77227;BME280;66234;47.642;19.144;2024-01-06T09:18:27;99325.75;;;6.36;100.00
77227;BME280;66234;47.642;19.144;2024-01-06T09:21:30;99323.34;;;6.48;100.00
77227;BME280;66234;47.642;19.144;2024-01-06T09:24:32;99314.75;;;6.52;100.00
77227;BME280;66234;47.642;19.144;2024-01-06T09:27:36;99322.91;;;6.57;100.00
77227;BME280;66234;47.642;19.144;2024-01-06T09:30:38;99311.69;;;6.62;100.00
77227;BME280;66234;47.642;19.144;2024-01-06T09:33:41;99313.53;;;6.61;100.00
77227;BME280;66234;47.642;19.144;2024-01-06T09:36:44;99317.22;;;6.60;100.00
77227;BME280;66234;47.642;19.144;2024-01-06T09:39:47;99313.31;;;6.76;100.00
77227;BME280;66234;47.642;19.144;2024-01-06T09:42:50;99307.41;;;6.81;100.00
77227;BME280;66234;47.642;19.144;2024-01-06T09:46:08;99296.56;;;6.76;100.00
77227;BME280;66234;47.642;19.144;2024-01-06T09:49:13;99298.19;;;6.57;100.00
77227;BME280;66234;47.642;19.144;2024-01-06T09:52:21;99304.31;;;6.64;100.00
77227;BME280;66234;47.642;19.144;2024-01-06T09:55:25;99297.34;;;6.76;100.00
77227;BME280;66234;47.642;19.144;2024-01-06T09:58:28;99299.00;;;6.84;100.00
77227;BME280;66234;47.642;19.144;2024-01-06T10:01:35;99291.63;;;6.86;100.00
77227;BME280;66234;47.642;19.144;2024-01-06T10:04:38;99291.63;;;6.86;100.00
77227;BME280;66234;47.642;19.144;2024-01-06T10:07:42;99291.25;;;6.82;100.00
77227;BME280;66234;47.642;19.144;2024-01-06T10:10:45;99298.59;;;6.87;100.00
77227;BME280;66234;47.642;19.144;2024-01-06T10:13:49;99303.50;;;6.90;100.00
77227;BME280;66234;47.642;19.144;2024-01-06T10:16:52;99302.47;;;6.91;100.00
77227;BME280;66234;47.642;19.144;2024-01-06T10:19:55;99317.16;;;6.93;100.00
77227;BME280;66234;47.642;19.144;2024-01-06T10:23:05;99305.31;;;7.02;100.00
77227;BME280;66234;47.642;19.144;2024-01-06T10:26:12;99315.97;;;6.96;100.00
77227;BME280;66234;47.642;19.144;2024-01-06T10:29:15;99313.09;;;6.84;100.00
77227;BME280;66234;47.642;19.144;2024-01-06T10:32:17;99306.56;;;6.73;100.00
77227;BME280;66234;47.642;19.144;2024-01-06T10:35:21;99318.03;;;6.81;100.00
77227;BME280;66234;47.642;19.144;2024-01-06T10:38:26;99308.19;;;6.94;100.00
77227;BME280;66234;47.642;19.144;2024-01-06T10:41:29;99300.84;;;6.77;100.00
77227;BME280;66234;47.642;19.144;2024-01-06T10:44:33;99295.53;;;6.83;100.00
77227;BME280;66234;47.642;19.144;2024-01-06T10:47:37;99293.28;;;6.80;100.00
77227;BME280;66234;47.642;19.144;2024-01-06T10:50:40;99288.97;;;6.92;100.00
77227;BME280;66234;47.642;19.144;2024-01-06T10:53:43;99285.69;;;7.03;100.00
77227;BME280;66234;47.642;19.144;2024-01-06T10:56:47;99273.19;;;7.10;100.00
77227;BME280;66234;47.642;19.144;2024-01-06T10:59:52;99271.34;;;7.11;100.00
77227;BME280;66234;47.642;19.144;2024-01-06T11:02:55;99269.53;;;7.11;100.00
77227;BME280;66234;47.642;19.144;2024-01-06T11:05:58;99265.63;;;7.07;100.00
77227;BME280;66234;47.642;19.144;2024-01-06T11:09:23;99257.06;;;7.05;100.00
77227;BME280;66234;47.642;19.144;2024-01-06T11:12:27;99248.88;;;7.07;100.00
77227;BME280;66234;47.642;19.144;2024-01-06T11:15:43;99249.69;;;7.07;100.00
77227;BME280;66234;47.642;19.144;2024-01-06T11:18:46;99242.75;;;7.06;100.00
77227;BME280;66234;47.642;19.144;2024-01-06T11:21:48;99236.81;;;7.11;100.00
77227;BME280;66234;47.642;19.144;2024-01-06T11:24:52;99227.19;;;7.10;100.00
77227;BME280;66234;47.642;19.144;2024-01-06T11:27:56;99228.81;;;7.17;100.00
77227;BME280;66234;47.642;19.144;2024-01-06T11:31:07;99211.41;;;7.15;100.00
77227;BME280;66234;47.642;19.144;2024-01-06T11:34:14;99213.50;;;7.13;100.00
77227;BME280;66234;47.642;19.144;2024-01-06T11:37:18;99200.00;;;7.08;100.00
77227;BME280;66234;47.642;19.144;2024-01-06T11:43:26;99192.22;;;7.13;100.00
77227;BME280;66234;47.642;19.144;2024-01-06T11:46:29;99180.19;;;7.04;100.00
77227;BME280;66234;47.642;19.144;2024-01-06T11:49:32;99176.09;;;7.08;100.00
77227;BME280;66234;47.642;19.144;2024-01-06T11:52:34;99182.81;;;7.10;100.00
77227;BME280;66234;47.642;19.144;2024-01-06T11:55:40;99163.22;;;7.05;100.00
77227;BME280;66234;47.642;19.144;2024-01-06T11:58:45;99164.22;;;7.10;100.00
77227;BME280;66234;47.642;19.144;2024-01-06T12:01:48;99167.50;;;7.06;100.00
77227;BME280;66234;47.642;19.144;2024-01-06T12:04:52;99159.75;;;7.04;100.00
77227;BME280;66234;47.642;19.144;2024-01-06T12:08:01;99151.75;;;7.04;100.00
77227;BME280;66234;47.642;19.144;2024-01-06T12:11:05;99152.78;;;7.10;100.00
77227;BME280;66234;47.642;19.144;2024-01-06T12:14:07;99147.28;;;7.05;100.00
77227;BME280;66234;47.642;19.144;2024-01-06T12:17:10;99155.44;;;7.10;100.00
77227;BME280;66234;47.642;19.144;2024-01-06T12:20:13;99144.84;;;7.03;100.00
77227;BME280;66234;47.642;19.144;2024-01-06T12:23:26;99151.75;;;7.11;100.00
77227;BME280;66234;47.642;19.144;2024-01-06T12:26:30;99146.28;;;6.99;100.00
77227;BME280;66234;47.642;19.144;2024-01-06T12:29:32;99150.16;;;7.03;100.00
77227;BME280;66234;47.642;19.144;2024-01-06T12:32:35;99151.63;;;6.93;100.00
77227;BME280;66234;47.642;19.144;2024-01-06T12:35:38;99142.63;;;6.87;100.00
77227;BME280;66234;47.642;19.144;2024-01-06T12:38:42;99141.22;;;6.85;100.00
77227;BME280;66234;47.642;19.144;2024-01-06T12:41:44;99144.72;;;6.85;100.00
77227;BME280;66234;47.642;19.144;2024-01-06T12:44:47;99139.31;;;7.05;100.00
77227;BME280;66234;47.642;19.144;2024-01-06T12:47:50;99131.31;;;7.05;100.00
77227;BME280;66234;47.642;19.144;2024-01-06T12:50:54;99135.81;;;7.04;100.00
77227;BME280;66234;47.642;19.144;2024-01-06T12:53:56;99143.78;;;7.11;100.00
77227;BME280;66234;47.642;19.144;2024-01-06T12:56:59;99146.63;;;7.16;100.00
77227;BME280;66234;47.642;19.144;2024-01-06T13:00:02;99149.28;;;7.16;100.00
77227;BME280;66234;47.642;19.144;2024-01-06T13:03:06;99140.06;;;7.18;100.00
77227;BME280;66234;47.642;19.144;2024-01-06T13:06:09;99143.56;;;7.12;100.00
77227;BME280;66234;47.642;19.144;2024-01-06T13:09:11;99148.69;;;7.07;100.00
77227;BME280;66234;47.642;19.144;2024-01-06T13:12:19;99149.94;;;7.05;100.00
77227;BME280;66234;47.642;19.144;2024-01-06T13:15:21;99161.03;;;6.89;100.00
77227;BME280;66234;47.642;19.144;2024-01-06T13:18:24;99157.72;;;6.93;100.00
77227;BME280;66234;47.642;19.144;2024-01-06T13:21:27;99167.50;;;7.06;100.00
77227;BME280;66234;47.642;19.144;2024-01-06T13:24:31;99158.47;;;7.13;100.00
77227;BME280;66234;47.642;19.144;2024-01-06T13:27:34;99162.78;;;7.14;100.00
77227;BME280;66234;47.642;19.144;2024-01-06T13:30:37;99166.88;;;7.10;100.00
77227;BME280;66234;47.642;19.144;2024-01-06T13:33:41;99163.00;;;7.06;100.00
77227;BME280;66234;47.642;19.144;2024-01-06T13:36:44;99160.13;;;7.08;100.00
77227;BME280;66234;47.642;19.144;2024-01-06T13:39:49;99158.53;;;7.07;100.00
77227;BME280;66234;47.642;19.144;2024-01-06T13:42:51;99160.38;;;7.00;100.00
77227;BME280;66234;47.642;19.144;2024-01-06T13:45:55;99162.03;;;7.01;100.00
77227;BME280;66234;47.642;19.144;2024-01-06T13:48:58;99166.72;;;7.05;100.00
77227;BME280;66234;47.642;19.144;2024-01-06T13:52:01;99163.41;;;7.10;100.00
77227;BME280;66234;47.642;19.144;2024-01-06T13:55:04;99160.53;;;7.11;100.00
77227;BME280;66234;47.642;19.144;2024-01-06T13:58:07;99154.41;;;7.11;100.00
77227;BME280;66234;47.642;19.144;2024-01-06T14:01:11;99159.94;;;7.09;100.00
77227;BME280;66234;47.642;19.144;2024-01-06T14:04:14;99152.78;;;7.10;100.00
77227;BME280;66234;47.642;19.144;2024-01-06T14:07:18;99149.94;;;7.05;100.00
77227;BME280;66234;47.642;19.144;2024-01-06T14:10:21;99147.69;;;7.02;100.00
77227;BME280;66234;47.642;19.144;2024-01-06T14:13:24;99141.94;;;7.11;100.00
77227;BME280;66234;47.642;19.144;2024-01-06T14:16:27;99127.84;;;7.04;100.00
77227;BME280;66234;47.642;19.144;2024-01-06T14:19:29;99132.94;;;7.06;100.00
77227;BME280;66234;47.642;19.144;2024-01-06T14:22:32;99131.75;;;7.02;100.00
77227;BME280;66234;47.642;19.144;2024-01-06T14:25:35;99130.28;;;7.06;100.00
77227;BME280;66234;47.642;19.144;2024-01-06T14:28:37;99134.19;;;7.03;100.00
77227;BME280;66234;47.642;19.144;2024-01-06T14:31:40;99138.91;;;7.01;100.00
77227;BME280;66234;47.642;19.144;2024-01-06T14:34:42;99135.41;;;7.07;100.00
77227;BME280;66234;47.642;19.144;2024-01-06T14:37:45;99133.16;;;7.04;100.00
77227;BME280;66234;47.642;19.144;2024-01-06T14:40:48;99125.38;;;7.09;100.00
77227;BME280;66234;47.642;19.144;2024-01-06T14:43:50;99128.47;;;7.06;100.00
77227;BME280;66234;47.642;19.144;2024-01-06T14:46:53;99132.59;;;6.96;100.00
77227;BME280;66234;47.642;19.144;2024-01-06T14:49:55;99132.84;;;6.81;100.00
77227;BME280;66234;47.642;19.144;2024-01-06T14:52:58;99147.75;;;6.89;100.00
77227;BME280;66234;47.642;19.144;2024-01-06T14:56:01;99151.41;;;7.01;100.00
77227;BME280;66234;47.642;19.144;2024-01-06T14:59:06;99146.63;;;7.09;100.00
77227;BME280;66234;47.642;19.144;2024-01-06T15:02:08;99152.16;;;7.14;100.00
77227;BME280;66234;47.642;19.144;2024-01-06T15:05:11;99144.16;;;7.14;100.00
77227;BME280;66234;47.642;19.144;2024-01-06T15:08:14;99147.44;;;7.16;100.00
77227;BME280;66234;47.642;19.144;2024-01-06T15:11:16;99144.81;;;7.10;100.00
77227;BME280;66234;47.642;19.144;2024-01-06T15:14:19;99156.06;;;7.05;100.00
77227;BME280;66234;47.642;19.144;2024-01-06T15:17:22;99154.28;;;6.93;100.00
77227;BME280;66234;47.642;19.144;2024-01-06T15:20:24;99150.19;;;6.90;100.00
77227;BME280;66234;47.642;19.144;2024-01-06T15:23:27;99148.25;;;7.10;100.00
77227;BME280;66234;47.642;19.144;2024-01-06T15:26:30;99136.81;;;7.16;100.00
77227;BME280;66234;47.642;19.144;2024-01-06T15:29:33;99133.28;;;7.22;100.00
77227;BME280;66234;47.642;19.144;2024-01-06T15:32:36;99136.16;;;7.21;100.00
77227;BME280;66234;47.642;19.144;2024-01-06T15:35:39;99135.16;;;7.15;100.00
77227;BME280;66234;47.642;19.144;2024-01-06T15:38:42;99124.53;;;7.15;100.00
77227;BME280;66234;47.642;19.144;2024-01-06T15:41:44;99118.38;;;7.15;100.00
77227;BME280;66234;47.642;19.144;2024-01-06T15:44:47;99117.81;;;7.13;100.00
77227;BME280;66234;47.642;19.144;2024-01-06T15:47:49;99114.31;;;7.12;100.00
77227;BME280;66234;47.642;19.144;2024-01-06T15:50:52;99118.88;;;7.05;100.00
77227;BME280;66234;47.642;19.144;2024-01-06T15:53:54;99118.00;;;7.11;100.00
77227;BME280;66234;47.642;19.144;2024-01-06T15:56:57;99116.97;;;7.12;100.00
77227;BME280;66234;47.642;19.144;2024-01-06T16:00:00;99111.03;;;7.17;100.00